Brandon, Wisconsin
Current Conditions -  °F | °C
As of 1:53 AM on Thursday 27 Nov 2014 (Local Time) from KFLD Reporting Station
Light Snow Light Snow  
Wind Chill: 13°   Ceiling: 3800
Heat Index: 23°   Visibility: 3mi
Dew Point: 19°   Wind: 9mph
Humidity: 85%   Direction: 310°NW
Pressure: 30.22"   Gusts: NA
Location:  43.74°N, 88.78°W
Report Text: KFLD 270753Z AUTO 31008KT 3SM -SN BR OVC038 M05/M07 A3022 RMK AO2 SLP248 P0000 T10501072
Loading
Personal Weather Stations






























Interactive Weather Map New forecast layout! Learn more

10-Day Weather Forecast

Advertisements
Track Severe Weather on mobile